Latest Coastal Weather Observations for Moorabbin Airport

IDV60701

Issued at 10:05 am EST Sunday 31 August 2014 (issued every 10 minutes, with the page automatically refreshed every 10 minutes)

About coastal observations | Map of coastal stations | Coastal observations for VIC | Marine services | Other Formats
Station Details ID: 086077 Name: MOORABBIN AIRPORT Lat: -37.98 Lon: 145.10 Height: 12.1 m
Data from the previous 72 hours. | See also: Recent months at Moorabbin Airport
Date/Time
EST
Temp

°C
Wind Pressure Rain
since 9am
mm
Weather Cloud Vis
km
Sea
Height
m
Swell
Dir
 
Speed
knots
Gust
knots
hPa Trend Height
m
Period
s
Dir
31/10:00am 17.5 N 16 23 1017.8 - 0.0 - - 10 - - - -
31/09:30am 16.4 N 17 23 1018.2 - 0.0 - - 10 - - - -
31/09:00am 15.7 N 15 19 1018.5 - 0.0 - - 10 - - - -
31/08:30am 14.7 N 13 16 1018.6 - 0.0 - - 10 - - - -
31/08:00am 13.4 N 10 15 1018.8 - 0.0 - - 10 - - - -
31/07:30am 11.7 N 9 10 1019.1 - 0.0 - - 10 - - - -
31/07:00am 10.4 N 7 8 1019.0 - 0.0 - - 10 - - - -
31/06:30am 9.7 N 8 9 1018.7 - 0.0 - - 10 - - - -
31/06:00am 10.4 N 8 9 1018.6 - 0.0 - - 10 - - - -
31/05:30am 10.6 N 8 10 1018.3 - 0.0 - - 10 - - - -
31/05:00am 9.5 N 7 9 1018.2 - 0.0 - - 10 - - - -
31/04:30am 9.6 N 6 6 1018.4 - 0.0 - - 10 - - - -
31/04:00am 10.1 N 6 7 1018.5 - 0.0 - - 10 - - - -
31/03:30am 10.5 N 5 6 1018.7 - 0.0 - - 10 - - - -
31/03:00am 11.0 N 5 6 1018.7 - 0.0 - - 10 - - - -
31/02:30am 10.9 N 5 6 1019.0 - 0.0 - - 10 - - - -
31/02:00am 11.0 N 5 5 1019.3 - 0.0 - - 10 - - - -
31/01:30am 11.0 N 5 5 1019.6 - 0.0 - - 10 - - - -
31/01:00am 11.9 N 6 7 1019.9 - 0.0 - - 10 - - - -
31/12:30am 12.1 N 6 8 1020.0 - 0.0 - - 10 - - - -
31/12:00am 12.1 N 8 9 1020.0 - 0.0 - - 10 - - - -
 
Date/Time
EST
Temp

°C
Wind Pressure Rain
since 9am
mm
Weather Cloud Vis
km
Sea
Height
m
Swell
Dir
 
Speed
knots
Gust
knots
hPa Trend Height
m
Period
s
Dir
30/11:30pm 10.3 N 5 6 1020.6 - 0.0 - - 10 - - - -
30/11:00pm 10.5 N 3 4 1020.9 - 0.0 - - 10 - - - -
30/10:30pm 10.6 NE 3 4 1021.4 - 0.0 - - 10 - - - -
30/10:00pm 12.9 N 4 6 1021.7 - 0.0 - - 10 - - - -
30/09:30pm 13.4 N 5 6 1021.7 - 0.0 - - 10 - - - -
30/09:00pm 12.9 N 6 6 1021.7 - 0.0 - - 10 - - - -
30/08:30pm 12.3 NNE 5 6 1021.6 - 0.0 - - 10 - - - -
30/08:00pm 14.0 N 5 5 1021.4 - 0.0 - - 10 - - - -
30/07:30pm 15.4 N 5 6 1021.3 - 0.0 - - 10 - - - -
30/07:00pm 14.9 N 7 7 1021.2 - 0.0 - - 10 - - - -
30/06:30pm 15.7 N 6 7 1021.4 - 0.0 - - 10 - - - -
30/06:00pm 16.9 N 7 9 1021.5 - 0.0 - - 10 - - - -
30/05:30pm 17.9 N 9 13 1021.3 - 0.0 - - 10 - - - -
30/05:00pm 18.9 N 10 14 1021.4 - 0.0 - - 10 - - - -
30/04:30pm 19.5 N 10 15 1021.3 - 0.0 - - 10 - - - -
30/04:00pm 19.9 N 12 17 1021.3 - 0.0 - - 10 - - - -
30/03:30pm 20.1 N 11 16 1021.3 - 0.0 - - 10 - - - -
30/03:00pm 20.2 N 13 17 1021.5 - 0.0 - - 10 - - - -
30/02:30pm 20.3 N 12 16 1021.7 - 0.0 - - 10 - - - -
30/02:00pm 20.2 N 12 17 1022.1 - 0.0 - - 10 - - - -
30/01:30pm 20.0 N 11 15 1022.4 - 0.0 - - 10 - - - -
30/01:00pm 19.7 NNW 10 16 1022.9 - 0.0 - - 10 - - - -
30/12:30pm 18.6 N 6 11 1023.5 - 0.0 - - 10 - - - -
30/12:00pm 17.8 N 10 14 1024.0 - 0.0 - - 10 - - - -
30/11:30am 17.4 NNE 3 5 1024.6 - 0.0 - - 10 - - - -
30/11:00am 15.5 NW 2 4 1025.1 - 0.0 - - 9 - - - -
30/10:30am 14.8 NNE 2 4 1025.6 - 0.0 - - 8 - - - -
30/10:00am 12.9 N 4 6 1026.1 - 0.0 - - 7 - - - -
30/09:44am 12.5 NNW 3 6 1026.2 - 0.0 - Partly cloudy 6 - - - -
30/09:30am 12.1 NW 4 6 1026.3 - 0.0 - Partly cloudy 6 - - - -
30/09:13am 11.4 NNW 5 7 1026.4 - 0.0 - Cloudy 6 - - - -
30/09:03am 11.2 N 5 8 1026.4 - 0.0 - Cloudy 5 - - - -
30/09:00am 10.9 N 5 8 1026.5 - 0.0 - Mostly cloudy 6 - - - -
30/08:30am 10.9 N 6 7 1026.5 - 0.0 - Cloudy 6 - - - -
30/08:00am 10.9 NNW 5 7 1026.5 - 0.0 - Cloudy 6 - - - -
30/07:30am 10.7 N 6 9 1026.2 - 0.0 - Cloudy 6 - - - -
30/07:00am 10.9 N 5 9 1026.1 - 0.0 - Cloudy 6 - - - -
30/06:30am 11.0 NE 6 7 1025.8 - 0.0 - Cloudy 7 - - - -
30/06:00am 11.1 N 5 7 1025.6 - 0.0 - Cloudy 6 - - - -
30/05:30am 11.3 NNE 4 5 1025.6 - 0.0 - Cloudy 7 - - - -
30/05:00am 11.3 N 5 7 1025.5 - 0.0 - Cloudy 7 - - - -
30/04:54am 11.3 N 6 8 1025.5 - 0.0 - Cloudy 7 - - - -
30/04:30am 11.2 NNW 4 6 1025.7 - 0.0 - Cloudy 5 - - - -
30/04:02am 11.2 N 5 7 1025.8 - 0.0 - Partly cloudy 5 - - - -
30/04:00am 11.2 N 6 8 1025.8 - 0.0 - Cloudy 6 - - - -
30/03:41am 11.2 NNE 5 7 1025.7 - 0.0 - Cloudy 6 - - - -
30/03:30am 11.1 NNE 6 9 1025.8 - 0.0 - Cloudy 5 - - - -
30/03:00am 10.3 SSE 2 4 1025.9 - 0.0 - Cloudy 4 - - - -
30/02:30am 10.2 S 4 5 1026.3 - 0.0 - Cloudy 4 - - - -
30/02:05am 10.6 E 4 5 1026.4 - 0.0 - Cloudy 5 - - - -
30/02:00am 11.0 E 4 5 1026.3 - 0.0 - Cloudy 6 - - - -
30/01:43am 10.9 E 5 7 1026.4 - 0.0 - Cloudy 6 - - - -
30/01:30am 10.7 ESE 5 7 1026.6 - 0.0 - Cloudy 5 - - - -
30/01:00am 10.8 SE 5 6 1026.9 - 0.0 - Cloudy 4 - - - -
30/12:34am 11.0 SE 4 6 1027.0 - 0.0 - Cloudy 5 - - - -
30/12:30am 11.1 SE 4 5 1027.0 - 0.0 - Cloudy 6 - - - -
30/12:00am 10.7 SSW 1 4 1027.3 - 0.0 - Cloudy 6 - - - -
 
Date/Time
EST
Temp

°C
Wind Pressure Rain
since 9am
mm
Weather Cloud Vis
km
Sea
Height
m
Swell
Dir
 
Speed
knots
Gust
knots
hPa Trend Height
m
Period
s
Dir
29/11:30pm 10.4 SW 4 5 1027.4 - 0.0 - Partly cloudy 7 - - - -
29/11:00pm 10.7 SW 4 5 1027.4 - 0.0 - Partly cloudy 7 - - - -
29/10:30pm 11.3 S 4 5 1027.6 - 0.0 - Cloudy 8 - - - -
29/10:00pm 11.4 S 4 6 1027.9 - 0.0 - Cloudy 9 - - - -
29/09:30pm 11.0 S 5 6 1028.1 - 0.0 - Cloudy 7 - - - -
29/09:08pm 10.7 S 5 6 1028.0 - 0.0 - Partly cloudy 8 - - - -
29/09:00pm 10.7 S 5 6 1028.1 - 0.0 - Mostly clear 9 - - - -
29/08:30pm 11.4 S 5 7 1028.0 - 0.0 - Partly cloudy 10 - - - -
29/08:00pm 11.7 S 4 6 1028.0 - 0.0 - Partly cloudy 9 - - - -
29/07:30pm 11.3 S 5 6 1028.0 - 0.0 - Partly cloudy 8 - - - -
29/07:00pm 10.5 S 4 5 1028.1 - 0.0 - Partly cloudy 7 - - - -
29/06:30pm 11.1 SW 5 7 1027.8 - 0.0 - - 9 - - - -
29/06:00pm 11.8 SW 6 8 1027.7 - 0.0 - Mostly cloudy 10 - - - -
29/05:30pm 12.2 SW 8 10 1027.6 - 0.0 - Cloudy 10 - - - -
29/05:00pm 12.1 SSW 8 10 1027.8 - 0.0 - Cloudy 10 - - - -
29/04:30pm 12.8 SSW 8 11 1027.7 - 0.0 - Cloudy 10 - - - -
29/04:00pm 13.5 SSW 7 10 1027.7 - 0.0 - Partly cloudy 10 - - - -
29/03:30pm 13.5 SW 5 7 1027.6 - 0.0 - Cloudy 10 - - - -
29/03:00pm 13.6 SW 6 8 1027.7 - 0.0 - Cloudy 10 - - - -
29/02:30pm 14.1 SW 7 9 1028.0 - 0.0 - Cloudy 9 - - - -
29/02:00pm 14.2 NNE 2 4 1028.1 - 0.0 - Cloudy 8 - - - -
29/01:30pm 14.0 N 2 3 1028.3 - 0.0 - Cloudy 8 - - - -
29/01:00pm 12.8 S 3 5 1028.8 - 0.0 - Cloudy 9 - - - -
29/12:30pm 12.3 SW 7 9 1029.3 - 0.0 - Cloudy 8 - - - -
29/12:00pm 12.8 CALM 0 3 1029.6 - 0.0 - Cloudy 10 - - - -
29/11:30am 12.5 NNE 3 13 1030.0 - 0.0 - Cloudy 10 - - - -
29/11:04am 12.4 ENE 3 5 1030.1 - 0.0 - Partly cloudy 10 - - - -
29/11:00am 12.4 NE 3 5 1030.1 - 0.0 - Partly cloudy 10 - - - -
29/10:30am 11.9 NE 2 5 1030.1 - 0.0 - Partly cloudy 10 - - - -
29/10:25am 12.1 NE 1 4 1030.2 - 0.0 - Partly cloudy 10 - - - -
29/10:00am 11.9 NE 4 5 1030.2 - 0.0 - Partly cloudy 9 - - - -
29/09:30am 11.3 NE 4 6 1030.1 - 0.0 - Cloudy 9 - - - -
29/09:05am 11.4 ENE 5 6 1030.1 - 0.0 - Partly cloudy 7 - - - -
29/09:00am 11.5 ENE 5 6 1030.1 - 0.2 - Partly cloudy 6 - - - -
29/08:47am 11.5 ENE 5 7 1029.9 - 0.2 - Partly cloudy 5 - - - -
29/08:36am 11.3 E 5 7 1029.8 - 0.2 - Partly cloudy 8 - - - -
29/08:30am 11.1 E 5 7 1029.7 - 0.2 - Partly cloudy 7 - - - -
29/08:00am 10.7 SSW 3 5 1029.6 - 0.2 - Cloudy 8 - - - -
29/07:30am 10.4 CALM 0 3 1029.4 - 0.2 - Partly cloudy 6 - - - -
29/07:00am 10.0 NW 4 5 1029.1 - 0.2 - Cloudy 6 - - - -
29/06:55am 10.0 NW 4 5 1029.0 - 0.2 - Cloudy 6 - - - -
29/06:43am 9.9 NW 4 5 1029.0 - 0.2 - Cloudy 5 - - - -
29/06:30am 9.8 WNW 3 5 1028.9 - 0.2 - Partly cloudy 6 - - - -
29/06:00am 9.9 NW 3 5 1028.4 - 0.2 - Cloudy 2 - - - -
29/05:30am 9.9 NW 4 6 1028.3 - 0.2 - Cloudy 2 - - - -
29/05:00am 10.1 NW 1 3 1028.1 - 0.2 - Cloudy 1 - - - -
29/04:30am 10.1 N 5 6 1028.1 - 0.2 - Cloudy 0.7 - - - -
29/04:00am 10.1 NNW 4 6 1028.3 - 0.2 - Cloudy 1 - - - -
29/03:30am 10.1 NNW 4 5 1028.3 - 0.2 - Cloudy 0.5 - - - -
29/03:00am 10.3 NNW 4 6 1028.3 - 0.2 - Cloudy 0.3 - - - -
29/02:30am 10.5 WNW 4 6 1028.4 - 0.2 - Cloudy 0.7 - - - -
29/02:00am 9.8 NNW 4 4 1028.4 - 0.2 - Cloudy 0.6 - - - -
29/01:43am 9.4 NNW 5 6 1028.5 - 0.2 - Partly cloudy 1 - - - -
29/01:30am 8.7 NNW 5 6 1028.4 - 0.2 - - 5 - - - -
29/01:00am 7.8 NW 4 4 1028.4 - 0.2 - - 5 - - - -
29/12:30am 8.5 N 5 6 1028.2 - 0.2 - - 4 - - - -
29/12:00am 8.6 CALM 0 0 1028.5 - 0.2 - Mostly clear 4 - - - -
 
Date/Time
EST
Temp

°C
Wind Pressure Rain
since 9am
mm
Weather Cloud Vis
km
Sea
Height
m
Swell
Dir
 
Speed
knots
Gust
knots
hPa Trend Height
m
Period
s
Dir
28/11:30pm 9.0 CALM 0 0 1028.6 - 0.2 - - 5 - - - -
28/11:00pm 8.9 WSW 3 3 1028.6 - 0.2 - - 5 - - - -
28/10:48pm 9.4 WSW 1 4 1028.6 - 0.2 - - 5 - - - -
28/10:30pm 10.1 W 5 5 1028.8 - 0.2 - Partly cloudy 7 - - - -
28/10:25pm 10.2 W 5 5 1028.7 - 0.2 - Partly cloudy 6 - - - -
28/10:09pm 9.8 W 3 7 1028.8 - 0.2 - Partly cloudy 5 - - - -
28/10:05pm 9.4 WSW 1 6 1028.8 - 0.2 - Partly cloudy 6 - - - -
28/10:00pm 9.4 CALM 0 0 1028.6 - 0.2 - Partly cloudy 6 - - - -
28/09:30pm 10.3 CALM 0 0 1028.6 - 0.2 - - 5 - - - -
28/09:16pm 10.4 CALM 0 0 1028.5 - 0.2 - Partly cloudy 5 - - - -
28/09:00pm 10.7 E 3 3 1028.5 - 0.2 - Mostly clear 10 - - - -
28/08:30pm 11.1 ESE 5 5 1028.3 - 0.2 - - 10 - - - -
28/08:00pm 11.4 SE 5 7 1028.1 - 0.2 - - 10 - - - -
28/07:30pm 12.0 SSE 6 7 1027.9 - 0.2 - - 10 - - - -
28/07:00pm 12.9 ESE 7 8 1027.6 - 0.2 - Partly cloudy 10 - - - -
28/06:30pm 12.3 SSE 3 4 1027.6 - 0.2 - Partly cloudy 10 - - - -
28/06:00pm 12.5 SSW 5 6 1027.4 - 0.0 - Partly cloudy 10 - - - -
28/05:30pm 13.9 SSW 6 7 1027.2 - 0.0 - - 10 - - - -
28/05:00pm 15.2 S 5 7 1026.9 - 0.0 - - 10 - - - -
28/04:30pm 16.6 S 5 6 1026.9 - 0.0 - - 10 - - - -
28/04:00pm 16.2 SSW 5 6 1026.9 - 0.0 - - 10 - - - -
28/03:30pm 15.8 SSW 6 7 1027.1 - 0.0 - - 10 - - - -
28/03:00pm 15.3 SSW 7 9 1027.1 - 0.0 - - 10 - - - -
28/02:30pm 14.5 SSW 7 8 1027.1 - 0.0 - - 10 - - - -
28/02:00pm 14.0 SSW 8 9 1027.2 - 0.0 - - 9 - - - -
28/01:30pm 14.8 SSW 6 7 1027.2 - 0.0 - - 8 - - - -
28/01:00pm 14.3 SSW 7 8 1027.8 - 0.0 - - 8 - - - -
28/12:30pm 14.7 S 6 8 1028.1 - 0.0 - - 7 - - - -
28/12:00pm 13.2 SSW 5 7 1028.4 - 0.0 - Partly cloudy 6 - - - -
28/11:30am 13.2 W 4 8 1028.8 - 0.0 - - 9 - - - -
28/11:00am 13.9 NW 1 5 1029.1 - 0.0 - - 10 - - - -
28/10:30am 12.1 N 3 5 1029.4 - 0.0 - - 10 - - - -

Other Formats:

Comma delimited format used in spreadsheet applications
http://www.bom.gov.au/fwo/IDV60701/IDV60701.94870.axf

JavaScript Object Notation format (JSON) in row-major order
http://www.bom.gov.au/fwo/IDV60701/IDV60701.94870.json